Main page
METAR-TAF:

METAR-TAF

Airports :

Zvartnots International Airport

Yerevan, Armenia

latitude: 40-08-50N, longitude: 044-23-45E, elevation: 865 m

Current weather observation

The report was made 19 minutes ago, at 10:00 UTC
Calm wind
Temperature 10°C
Humidity 46%
Pressure 1024 hPa
Visibility 10 km or more

METAR: UDYZ 191000Z 00000KT 9999 NSC 10/M01 Q1024 R09/000070 NOSIG

Time: 14:19 (10:19 UTC)

Forecast

The report was made 5 hours and 17 minutes ago, at 05:02 UTC
Forecast valid from 19 at 06 UTC to 20 at 06 UTC
Wind 4 kt from variable directions
Visibility 10 km or more
no clouds below 1500 m and no cumulonimbus
Temporary
from 19 at 06 UTC to 19 at 08 UTC
Visibility: 2000 m
mist

TAF: UDYZ 190502Z 1906/2006 VRB04KT CAVOK TEMPO 1906/1908 2000 BR

Weather observations and forecasts of more than 4000 airports (METAR and TAF reports).

The available stations are represented by yellow and red dots on the map.

Hover mouse over dot to see the name of the station.

Then click to see weather observations and forecasts.

To change the map : click on the green buttons with a black cross to zoom in, on the green button with a dash to zoom out, or on the green arrows for adjacent maps.


METAR-TAF: